Station Historical Data
Daily Summary for April 24, 2012 Units:  Metric    English   Both
« Previous Day
Next Day »
Daily Weekly Monthly Yearly Custom
  High: Low: Average:
Temperature: 18.7 °C 11.3 °C 14.3 °C
Dew Point: 10.3 °C 5.1 °C 7.1 °C
Humidity: 77% 43% 63%
Wind Speed: 27.4km/h 3.2km/h 12.1km/h
Wind Gust: 43.5km/h - -
Wind- - SE
Pressure: 1003.3 hPa 995.5 hPa -
Precipitation: 0.76 mm    
Historical Graphs
 
 
Tabular Data for April 24, 2012
Time Temperature Dew Point Pressure Wind Wind Speed Wind Gust Humidity Rainfall Rate (Hourly)
00:00 12.2 °C 5.3 °C 1003.3 hPa SE 9.7 km/h 11.3 km/h 63% 0 mm
00:10 12.2 °C 5.6 °C 1003.3 hPa SSE 9.7 km/h 11.3 km/h 64% 0 mm
00:20 11.9 °C 5.3 °C 1003.3 hPa ESE 4.8 km/h 11.3 km/h 64% 0 mm
00:30 11.6 °C 5.4 °C 1003.3 hPa ENE 4.8 km/h 8 km/h 66% 0 mm
00:40 11.5 °C 6 °C 1003.3 hPa ENE 4.8 km/h 8 km/h 69% 0 mm
00:50 11.3 °C 5.9 °C 1003.3 hPa East 4.8 km/h 8 km/h 69% 0 mm
01:00 11.3 °C 5.8 °C 1003.3 hPa East 3.2 km/h 6.4 km/h 69% 0 mm
01:10 11.3 °C 5.8 °C 1002.9 hPa ESE 3.2 km/h 8 km/h 69% 0 mm
01:20 11.5 °C 6.2 °C 1002.9 hPa East 3.2 km/h 6.4 km/h 70% 0 mm
01:30 11.6 °C 6.5 °C 1002.6 hPa ENE 3.2 km/h 4.8 km/h 71% 0 mm
01:40 11.6 °C 6.5 °C 1002.6 hPa East 3.2 km/h 9.7 km/h 71% 0 mm
01:50 11.7 °C 6.4 °C 1002.3 hPa East 4.8 km/h 12.9 km/h 70% 0 mm
02:00 12.3 °C 6.8 °C 1002.3 hPa SE 9.7 km/h 12.9 km/h 69% 0 mm
02:10 12.8 °C 7.1 °C 1002.3 hPa SE 9.7 km/h 12.9 km/h 68% 0 mm
02:20 12.7 °C 6.9 °C 1002.3 hPa ESE 8 km/h 11.3 km/h 68% 0 mm
02:30 12.8 °C 7.1 °C 1001.9 hPa ESE 8 km/h 11.3 km/h 68% 0 mm
02:40 12.8 °C 7.1 °C 1001.9 hPa ESE 9.7 km/h 12.9 km/h 68% 0 mm
02:50 13 °C 7 °C 1001.9 hPa ESE 9.7 km/h 11.3 km/h 67% 0 mm
03:00 13.2 °C 7 °C 1001.9 hPa SE 8 km/h 12.9 km/h 66% 0 mm
03:10 13.3 °C 7.1 °C 1001.9 hPa SSE 8 km/h 11.3 km/h 66% 0 mm
03:20 13.6 °C 7.2 °C 1001.9 hPa SE 8 km/h 11.3 km/h 65% 0 mm
03:30 13.7 °C 7 °C 1001.6 hPa SE 9.7 km/h 17.7 km/h 64% 0 mm
03:40 13.7 °C 7 °C 1001.6 hPa SE 8 km/h 11.3 km/h 64% 0 mm
04:00 13.9 °C 6.9 °C 1001.2 hPa SE 11.3 km/h 16.1 km/h 63% 0 mm
04:10 13.6 °C 6.7 °C 1000.9 hPa East 8 km/h 11.3 km/h 63% 0 mm
04:20 13.5 °C 6.8 °C 1000.9 hPa East 8 km/h 11.3 km/h 64% 0 mm
04:30 13.1 °C 6.9 °C 1000.6 hPa East 4.8 km/h 8 km/h 66% 0 mm
04:40 12.7 °C 6.7 °C 1000.6 hPa ENE 8 km/h 9.7 km/h 67% 0 mm
04:50 12.4 °C 6.5 °C 1000.6 hPa East 8 km/h 8 km/h 67% 0 mm
05:00 12.2 °C 6.4 °C 1000.6 hPa ENE 8 km/h 8 km/h 68% 0 mm
05:10 11.8 °C 6.3 °C 1000.2 hPa ENE 8 km/h 9.7 km/h 69% 0 mm
05:20 11.6 °C 6.3 °C 1000.2 hPa ENE 4.8 km/h 8 km/h 70% 0 mm
05:30 11.4 °C 6.3 °C 999.9 hPa ENE 4.8 km/h 8 km/h 71% 0 mm
05:40 11.4 °C 6.3 °C 999.9 hPa ENE 4.8 km/h 8 km/h 71% 0 mm
05:50 11.4 °C 6.8 °C 999.5 hPa NE 9.7 km/h 16.1 km/h 73% 0 mm
06:00 11.5 °C 7 °C 999.5 hPa ENE 14.5 km/h 20.9 km/h 74% 0 mm
06:10 11.5 °C 7 °C 998.5 hPa NE 14.5 km/h 20.9 km/h 74% 0 mm
06:20 11.6 °C 6.9 °C 998.5 hPa NE 11.3 km/h 19.3 km/h 73% 0 mm
06:30 11.7 °C 7 °C 998.9 hPa NE 4.8 km/h 14.5 km/h 73% 0 mm
06:40 11.6 °C 6.9 °C 998.9 hPa ENE 4.8 km/h 8 km/h 73% 0 mm
06:50 11.7 °C 7 °C 998.9 hPa ENE 3.2 km/h 4.8 km/h 73% 0 mm
07:00 11.9 °C 7.2 °C 998.9 hPa ENE 3.2 km/h 4.8 km/h 73% 0 mm
07:10 12.2 °C 7.5 °C 998.5 hPa ENE 4.8 km/h 9.7 km/h 73% 0 mm
07:20 12.8 °C 7.4 °C 998.5 hPa East 9.7 km/h 11.3 km/h 70% 0 mm
07:30 13.3 °C 7.9 °C 998.2 hPa ENE 11.3 km/h 12.9 km/h 70% 0 mm
07:40 13.5 °C 8.1 °C 998.2 hPa ENE 11.3 km/h 16.1 km/h 70% 0 mm
07:50 13.4 °C 8.4 °C 997.5 hPa ENE 9.7 km/h 12.9 km/h 72% 0 mm
08:00 13.2 °C 8.7 °C 997.5 hPa ENE 8 km/h 11.3 km/h 74% 0 mm
08:10 13.4 °C 9.3 °C 998.2 hPa ENE 8 km/h 14.5 km/h 76% 0 mm
08:20 13.5 °C 9.3 °C 998.2 hPa ENE 8 km/h 12.9 km/h 76% 0 mm
08:30 13.6 °C 9.7 °C 997.2 hPa ENE 9.7 km/h 12.9 km/h 77% 0 mm
08:40 13.7 °C 9.7 °C 997.2 hPa ENE 11.3 km/h 12.9 km/h 77% 0 mm
08:50 14 °C 9.6 °C 996.8 hPa ENE 11.3 km/h 16.1 km/h 75% 0 mm
09:00 14.5 °C 9.9 °C 996.8 hPa ENE 11.3 km/h 14.5 km/h 74% 0 mm
09:10 14.6 °C 10 °C 997.2 hPa ENE 11.3 km/h 12.9 km/h 74% 0 mm
09:20 14.8 °C 9.8 °C 997.2 hPa East 9.7 km/h 16.1 km/h 72% 0 mm
09:30 15.2 °C 9.8 °C 996.8 hPa East 11.3 km/h 16.1 km/h 70% 0 mm
09:40 15.5 °C 9.4 °C 996.8 hPa ESE 11.3 km/h 14.5 km/h 67% 0 mm
09:50 15.9 °C 9.6 °C 996.8 hPa East 12.9 km/h 20.9 km/h 66% 0 mm
10:00 16.3 °C 9.7 °C 996.8 hPa East 14.5 km/h 22.5 km/h 65% 0 mm
10:10 16.1 °C 9.5 °C 997.5 hPa ESE 12.9 km/h 19.3 km/h 65% 0 mm
10:20 15.7 °C 10.2 °C 997.5 hPa East 12.9 km/h 19.3 km/h 70% 0 mm
10:30 14.7 °C 10.3 °C 997.2 hPa SSE 14.5 km/h 40.2 km/h 75% 0 mm
10:40 13.9 °C 8.9 °C 997.2 hPa South 24.1 km/h 32.2 km/h 72% 0.76 mm
10:50 13.7 °C 9.3 °C 997.5 hPa SSE 20.9 km/h 33.8 km/h 75% 0 mm
11:00 13.7 °C 8.9 °C 997.5 hPa SSE 14.5 km/h 24.1 km/h 73% 0 mm
11:10 13.5 °C 8.9 °C 997.5 hPa East 16.1 km/h 25.7 km/h 74% 0 mm
11:20 13.1 °C 8.6 °C 997.5 hPa SE 16.1 km/h 27.4 km/h 74% 0 mm
11:30 12.7 °C 8.2 °C 995.5 hPa ESE 20.9 km/h 25.7 km/h 74% 0 mm
11:40 12.6 °C 8.3 °C 995.5 hPa SSE 14.5 km/h 24.1 km/h 75% 0 mm
11:50 12.8 °C 8.6 °C 997.2 hPa SSE 12.9 km/h 20.9 km/h 75% 0 mm
12:00 13.1 °C 8.8 °C 997.2 hPa SSE 14.5 km/h 22.5 km/h 75% 0 mm
12:10 13.1 °C 8.8 °C 997.9 hPa SSE 12.9 km/h 20.9 km/h 75% 0 mm
12:20 14.2 °C 8.9 °C 997.9 hPa SE 14.5 km/h 30.6 km/h 71% 0 mm
12:30 14.6 °C 8.7 °C 997.9 hPa SSE 14.5 km/h 25.7 km/h 68% 0 mm
12:40 15.2 °C 7.9 °C 997.9 hPa SSE 14.5 km/h 25.7 km/h 62% 0 mm
12:50 15.5 °C 8.3 °C 998.2 hPa SSE 12.9 km/h 22.5 km/h 62% 0 mm
13:00 15.9 °C 7.7 °C 998.2 hPa SSE 16.1 km/h 33.8 km/h 58% 0 mm
13:10 15.8 °C 7.3 °C 997.9 hPa SSE 20.9 km/h 33.8 km/h 57% 0 mm
13:20 15.8 °C 7.1 °C 997.9 hPa South 20.9 km/h 33.8 km/h 56% 0 mm
13:30 16 °C 6.7 °C 998.2 hPa South 22.5 km/h 35.4 km/h 54% 0 mm
13:40 16 °C 6.9 °C 998.2 hPa SSE 20.9 km/h 35.4 km/h 55% 0 mm
14:00 16.9 °C 8.1 °C 998.2 hPa South 19.3 km/h 24.1 km/h 56% 0 mm
14:10 17 °C 7.9 °C 998.5 hPa South 19.3 km/h 27.4 km/h 55% 0 mm
14:20 17.6 °C 8.4 °C 998.5 hPa SSE 12.9 km/h 20.9 km/h 55% 0 mm
14:30 17.9 °C 7.6 °C 998.5 hPa SSW 14.5 km/h 25.7 km/h 51% 0 mm
14:40 18.3 °C 7.7 °C 998.5 hPa South 14.5 km/h 27.4 km/h 50% 0 mm
14:50 18.3 °C 7.9 °C 998.5 hPa South 16.1 km/h 27.4 km/h 51% 0 mm
15:00 18.4 °C 7.8 °C 998.5 hPa SSW 19.3 km/h 24.1 km/h 50% 0 mm
15:10 18.4 °C 8.4 °C 998.5 hPa SSW 20.9 km/h 35.4 km/h 52% 0 mm
15:20 18.4 °C 8.4 °C 998.5 hPa SSW 19.3 km/h 27.4 km/h 52% 0 mm
15:30 18.6 °C 8.6 °C 998.5 hPa SW 16.1 km/h 27.4 km/h 52% 0 mm
15:40 18.5 °C 8.2 °C 998.5 hPa SSW 16.1 km/h 27.4 km/h 51% 0 mm
15:50 18.5 °C 7.6 °C 998.5 hPa South 20.9 km/h 30.6 km/h 49% 0 mm
16:00 18.5 °C 6.7 °C 998.5 hPa South 24.1 km/h 43.5 km/h 46% 0 mm
16:10 18.6 °C 6.1 °C 998.5 hPa South 24.1 km/h 37 km/h 44% 0 mm
16:20 18.7 °C 6.5 °C 998.5 hPa South 24.1 km/h 33.8 km/h 45% 0 mm
16:30 18.4 °C 6.2 °C 998.5 hPa South 27.4 km/h 41.8 km/h 45% 0 mm
16:40 18.3 °C 5.5 °C 998.5 hPa SSW 25.7 km/h 33.8 km/h 43% 0 mm
16:50 18.3 °C 5.8 °C 998.9 hPa South 22.5 km/h 35.4 km/h 44% 0 mm
17:00 18.1 °C 5.9 °C 998.9 hPa South 20.9 km/h 27.4 km/h 45% 0 mm
17:10 18.1 °C 6.3 °C 998.9 hPa South 19.3 km/h 35.4 km/h 46% 0 mm
17:20 17.7 °C 5.9 °C 998.9 hPa South 19.3 km/h 32.2 km/h 46% 0 mm
17:30 17.6 °C 6.1 °C 999.2 hPa South 22.5 km/h 33.8 km/h 47% 0 mm
17:40 17.9 °C 6.7 °C 999.2 hPa South 16.1 km/h 27.4 km/h 48% 0 mm
17:50 17.4 °C 6.6 °C 999.2 hPa South 19.3 km/h 25.7 km/h 49% 0 mm
18:00 16.9 °C 5.8 °C 999.2 hPa South 22.5 km/h 37 km/h 48% 0 mm
18:10 16.7 °C 5.6 °C 999.2 hPa South 22.5 km/h 43.5 km/h 48% 0 mm
18:20 16.4 °C 5.7 °C 999.2 hPa SSW 22.5 km/h 33.8 km/h 49% 0 mm
18:30 16.3 °C 5.8 °C 999.5 hPa South 16.1 km/h 24.1 km/h 50% 0 mm
18:40 16.2 °C 5.4 °C 999.5 hPa South 16.1 km/h 27.4 km/h 49% 0 mm
18:50 16.2 °C 5.7 °C 998.9 hPa South 16.1 km/h 27.4 km/h 50% 0 mm
19:00 16.1 °C 5.4 °C 998.9 hPa South 20.9 km/h 32.2 km/h 49% 0 mm
19:10 16 °C 5.8 °C 998.9 hPa SSE 16.1 km/h 32.2 km/h 51% 0 mm
19:20 15.9 °C 5.8 °C 998.9 hPa South 19.3 km/h 29 km/h 51% 0 mm
19:30 15.6 °C 5.8 °C 998.5 hPa SSE 14.5 km/h 25.7 km/h 52% 0 mm
19:40 15.4 °C 5.6 °C 998.5 hPa South 11.3 km/h 19.3 km/h 52% 0 mm
19:50 15.2 °C 5.4 °C 998.5 hPa South 11.3 km/h 22.5 km/h 52% 0 mm
20:00 15.1 °C 5.6 °C 998.5 hPa SSE 11.3 km/h 19.3 km/h 53% 0 mm
20:10 15.1 °C 5.1 °C 998.5 hPa SSE 12.9 km/h 19.3 km/h 51% 0 mm
20:20 14.9 °C 5.1 °C 998.5 hPa South 9.7 km/h 11.3 km/h 52% 0 mm
20:30 14.8 °C 5.3 °C 998.9 hPa SSE 3.2 km/h 8 km/h 53% 0 mm
20:40 14.5 °C 5.3 °C 998.9 hPa SSE 4.8 km/h 9.7 km/h 54% 0 mm
20:50 14.3 °C 5.3 °C 998.9 hPa SSE 4.8 km/h 8 km/h 55% 0 mm
21:00 13.9 °C 5.5 °C 998.9 hPa SE 3.2 km/h 6.4 km/h 57% 0 mm
21:10 13.3 °C 5.7 °C 999.2 hPa ENE 3.2 km/h 4.8 km/h 60% 0 mm
21:20 12.9 °C 5.6 °C 999.2 hPa ENE 3.2 km/h 4.8 km/h 61% 0 mm
21:30 12.4 °C 5.8 °C 999.5 hPa SE 3.2 km/h 6.4 km/h 64% 0 mm
21:40 12.3 °C 6.1 °C 999.5 hPa SSE 4.8 km/h 8 km/h 66% 0 mm
21:50 12.1 °C 5.7 °C 999.5 hPa SE 3.2 km/h 6.4 km/h 65% 0 mm
22:00 11.6 °C 5.3 °C 999.5 hPa SE 4.8 km/h 8 km/h 65% 0 mm
22:10 11.5 °C 5.4 °C 999.5 hPa SE 8 km/h 11.3 km/h 66% 0 mm
22:20 11.7 °C 5.1 °C 999.5 hPa SSE 8 km/h 16.1 km/h 64% 0 mm
22:30 12.5 °C 5.8 °C 1000.2 hPa SSE 12.9 km/h 16.1 km/h 64% 0 mm
22:40 12.5 °C 5.9 °C 1000.2 hPa South 11.3 km/h 16.1 km/h 64% 0 mm
22:50 12.4 °C 5.8 °C 1000.2 hPa SSE 11.3 km/h 14.5 km/h 64% 0 mm
23:00 12.4 °C 6 °C 1000.2 hPa SSE 9.7 km/h 16.1 km/h 65% 0 mm
23:10 12.3 °C 5.9 °C 1000.6 hPa SSE 9.7 km/h 12.9 km/h 65% 0 mm
23:30 11.9 °C 6 °C 1000.6 hPa SSE 8 km/h 11.3 km/h 67% 0 mm
23:40 11.9 °C 6.2 °C 1000.6 hPa South 8 km/h 9.7 km/h 68% 0 mm
23:50 11.9 °C 6.2 °C 1000.6 hPa South 8 km/h 12.9 km/h 68% 0 mm
Juneau County Weather
Compliments of Weather Underground